Time;durP1;ratioP1;P1;durP2;ratioP2;P2;SDS_P1;SDS_P2;PMS_P1;PMS_P2;Temp;Humidity;BMP_temperature;BMP_pressure;BME280_temperature;BME280_humidity;BME280_pressure;Samples;Min_cycle;Max_cycle;Signal;HPM_P1;HPM_P2
2023/03/31 00:02:06;;;;;;;32.53;5.78;;;9.90;99.90;;;;;;5008192;28;21439;-60
2023/03/31 00:04:32;;;;;;;38.20;5.53;;;9.80;99.90;;;;;;4999420;28;20232;-60
2023/03/31 00:06:58;;;;;;;35.80;6.20;;;9.80;99.90;;;;;;4986349;28;20671;-60
2023/03/31 00:09:24;;;;;;;44.63;5.95;;;9.80;99.90;;;;;;5003460;28;20050;-60
2023/03/31 00:11:51;;;;;;;37.47;6.15;;;9.80;99.90;;;;;;4978367;28;20471;-60
2023/03/31 00:14:19;;;;;;;35.60;6.85;;;9.80;99.90;;;;;;4994822;28;20107;-60
2023/03/31 00:16:45;;;;;;;41.00;6.35;;;9.80;99.90;;;;;;5023151;28;20062;-60
2023/03/31 00:19:17;;;;;;;34.63;6.15;;;9.90;99.90;;;;;;5024794;28;20041;-60
2023/03/31 00:21:50;;;;;;;43.22;6.65;;;9.90;99.90;;;;;;5023302;28;20037;-60
2023/03/31 00:24:17;;;;;;;28.20;5.53;;;9.90;99.90;;;;;;5020749;28;20057;-60
2023/03/31 00:26:43;;;;;;;29.75;5.60;;;9.90;99.90;;;;;;4998484;28;20560;-60
2023/03/31 00:29:10;;;;;;;43.85;6.22;;;9.90;99.90;;;;;;5020226;28;20384;-60
2023/03/31 00:31:37;;;;;;;31.95;5.78;;;9.90;99.90;;;;;;5023359;28;20631;-60
2023/03/31 00:34:04;;;;;;;39.50;5.55;;;9.90;99.90;;;;;;5024654;28;20044;-60
2023/03/31 00:36:35;;;;;;;45.78;6.55;;;9.90;99.90;;;;;;4999245;28;20522;-60
2023/03/31 00:39:07;;;;;;;35.25;5.75;;;9.90;99.90;;;;;;5021666;28;20068;-60
2023/03/31 00:41:34;;;;;;;33.63;6.57;;;9.90;99.90;;;;;;5018813;28;20414;-60
2023/03/31 00:44:23;;;;;;;40.88;6.38;;;9.90;99.90;;;;;;5015111;28;20583;-60
2023/03/31 00:47:01;;;;;;;31.15;5.50;;;9.80;99.90;;;;;;5007411;28;20049;-60
2023/03/31 00:49:50;;;;;;;34.97;5.50;;;9.80;99.90;;;;;;5001046;28;20048;-60
2023/03/31 00:52:24;;;;;;;37.95;6.45;;;9.80;99.90;;;;;;5020210;28;20071;-60
2023/03/31 00:54:55;;;;;;;34.42;5.97;;;9.80;99.90;;;;;;5003266;28;20049;-60
2023/03/31 00:57:23;;;;;;;34.03;6.38;;;9.80;99.90;;;;;;5016230;28;20041;-60
2023/03/31 00:59:53;;;;;;;33.80;5.95;;;9.70;99.90;;;;;;4978841;28;20171;-60
2023/03/31 01:02:19;;;;;;;30.02;5.63;;;9.70;99.90;;;;;;5019274;28;20798;-60
2023/03/31 01:04:53;;;;;;;40.45;6.55;;;9.70;99.90;;;;;;5019890;28;20038;-60
2023/03/31 01:07:49;;;;;;;35.67;5.80;;;9.70;99.90;;;;;;5019500;28;20071;-59
2023/03/31 01:10:15;;;;;;;33.10;5.40;;;9.70;99.90;;;;;;4992630;28;20124;-60
2023/03/31 01:12:45;;;;;;;31.77;5.38;;;9.60;99.90;;;;;;5004917;28;20079;-59
2023/03/31 01:15:12;;;;;;;29.52;5.50;;;9.60;99.90;;;;;;5002904;28;20531;-60
2023/03/31 01:17:43;;;;;;;25.90;5.10;;;9.60;99.90;;;;;;5002355;28;20057;-60
2023/03/31 01:20:46;;;;;;;36.38;6.25;;;9.50;99.90;;;;;;5017519;28;20426;-60
2023/03/31 01:23:30;;;;;;;35.40;7.10;;;9.50;99.90;;;;;;5014518;28;20056;-60
2023/03/31 01:26:14;;;;;;;30.33;5.25;;;9.50;99.90;;;;;;5005398;28;20057;-59
2023/03/31 01:28:56;;;;;;;33.70;5.53;;;9.40;99.90;;;;;;5005235;28;20053;-60
2023/03/31 01:31:38;;;;;;;31.10;5.78;;;9.40;99.90;;;;;;5019317;28;20049;-60
2023/03/31 01:34:25;;;;;;;35.38;6.15;;;9.40;99.90;;;;;;5005667;28;20053;-59
2023/03/31 01:37:10;;;;;;;33.95;5.03;;;9.40;99.90;;;;;;5021269;28;20544;-60
2023/03/31 01:40:07;;;;;;;36.13;5.90;;;9.40;99.90;;;;;;5010687;28;20072;-60
2023/03/31 01:42:45;;;;;;;26.95;5.38;;;9.30;99.90;;;;;;5017521;28;20041;-59
2023/03/31 01:45:36;;;;;;;31.83;5.70;;;9.30;99.90;;;;;;5019768;28;20056;-60
2023/03/31 01:48:08;;;;;;;35.88;5.75;;;9.30;99.90;;;;;;5002788;28;20068;-60
2023/03/31 01:50:58;;;;;;;33.05;6.20;;;9.30;99.90;;;;;;5015384;28;20048;-59
2023/03/31 01:53:34;;;;;;;32.40;5.32;;;9.40;99.90;;;;;;4997260;28;20046;-60
2023/03/31 01:56:32;;;;;;;30.65;5.13;;;9.40;99.90;;;;;;4999540;28;20080;-60
2023/03/31 01:59:03;;;;;;;32.28;5.68;;;9.40;99.90;;;;;;5005685;28;21877;-60
2023/03/31 02:01:47;;;;;;;35.17;6.20;;;9.30;99.90;;;;;;4990986;28;20090;-59
2023/03/31 02:04:28;;;;;;;35.63;6.47;;;9.40;99.90;;;;;;4986997;28;20057;-60
2023/03/31 02:06:59;;;;;;;31.67;5.63;;;9.40;99.90;;;;;;5012900;28;20052;-60
2023/03/31 02:09:37;;;;;;;27.15;5.28;;;9.40;99.90;;;;;;4995978;28;20374;-60
2023/03/31 02:12:07;;;;;;;29.77;5.55;;;9.40;99.90;;;;;;5014540;28;20741;-60
2023/03/31 02:14:34;;;;;;;31.45;5.60;;;9.40;99.90;;;;;;4995246;28;20065;-60
2023/03/31 02:17:03;;;;;;;30.00;5.45;;;9.30;99.90;;;;;;5015435;28;20047;-60
2023/03/31 02:19:32;;;;;;;28.48;5.28;;;9.40;99.90;;;;;;5017615;28;20045;-60
2023/03/31 02:22:00;;;;;;;26.30;4.60;;;9.30;99.90;;;;;;5000926;28;20049;-60
2023/03/31 02:24:28;;;;;;;28.70;4.60;;;9.40;99.90;;;;;;4995834;28;20514;-59
2023/03/31 02:27:02;;;;;;;29.10;4.93;;;9.30;99.90;;;;;;5003101;28;20144;-59
2023/03/31 02:29:28;;;;;;;28.92;4.63;;;9.30;99.90;;;;;;5000689;28;21560;-60
2023/03/31 02:32:06;;;;;;;27.55;5.38;;;9.30;99.90;;;;;;5020004;28;20407;-59
2023/03/31 02:34:31;;;;;;;28.55;5.20;;;9.30;99.90;;;;;;5016324;28;20045;-59
2023/03/31 02:36:57;;;;;;;27.48;5.80;;;9.30;99.90;;;;;;5021066;28;20045;-60
2023/03/31 02:39:33;;;;;;;31.77;4.72;;;9.30;99.90;;;;;;5016053;28;20068;-60
2023/03/31 02:42:05;;;;;;;31.35;4.53;;;9.40;99.90;;;;;;4998392;28;20420;-60
2023/03/31 02:44:34;;;;;;;28.90;5.15;;;9.30;99.90;;;;;;4995446;28;23753;-60
2023/03/31 02:47:06;;;;;;;28.35;4.50;;;9.40;99.90;;;;;;5018911;28;20096;-59
2023/03/31 02:49:33;;;;;;;28.97;4.83;;;9.40;99.90;;;;;;5014378;28;20052;-60
2023/03/31 02:52:22;;;;;;;28.10;4.68;;;9.40;99.90;;;;;;5016347;28;20365;-60
2023/03/31 02:55:17;;;;;;;36.63;5.38;;;9.40;99.90;;;;;;4999837;28;20051;-59
2023/03/31 02:58:12;;;;;;;27.00;5.60;;;9.40;99.90;;;;;;4981681;28;20088;-60
2023/03/31 03:01:18;;;;;;;29.60;5.13;;;9.50;99.90;;;;;;4999438;28;20136;-60
2023/03/31 03:04:12;;;;;;;27.77;4.93;;;9.50;99.90;;;;;;5013177;28;20600;-60
2023/03/31 03:07:16;;;;;;;25.35;4.60;;;9.50;99.90;;;;;;4999799;28;20041;-59
2023/03/31 03:09:59;;;;;;;30.35;4.63;;;9.50;99.90;;;;;;4969202;28;20049;-60
2023/03/31 03:12:49;;;;;;;27.17;5.32;;;9.50;99.90;;;;;;4983102;28;20121;-60
2023/03/31 03:15:24;;;;;;;23.92;4.72;;;9.50;99.90;;;;;;4993899;28;20056;-60
2023/03/31 03:17:50;;;;;;;35.67;5.20;;;9.50;99.90;;;;;;4997242;28;20128;-60
2023/03/31 03:20:19;;;;;;;26.10;5.72;;;9.50;99.90;;;;;;5003025;28;20068;-60
2023/03/31 03:22:44;;;;;;;27.38;5.00;;;9.50;99.90;;;;;;5018250;28;20047;-60
2023/03/31 03:25:13;;;;;;;28.10;5.13;;;9.50;99.90;;;;;;5014326;28;20049;-60
2023/03/31 03:27:40;;;;;;;20.92;4.28;;;9.50;99.90;;;;;;4980670;28;20135;-60
2023/03/31 03:30:09;;;;;;;25.92;4.43;;;9.50;99.90;;;;;;5013359;28;20073;-60
2023/03/31 03:32:34;;;;;;;20.30;4.15;;;9.50;99.90;;;;;;5016325;28;20054;-60
2023/03/31 03:35:01;;;;;;;21.90;4.57;;;9.50;99.90;;;;;;4999776;28;20431;-59
2023/03/31 03:37:29;;;;;;;25.05;4.10;;;9.50;99.90;;;;;;5004623;28;20455;-59
2023/03/31 03:39:54;;;;;;;24.40;4.38;;;9.50;99.90;;;;;;5023765;28;20050;-60
2023/03/31 03:42:20;;;;;;;29.98;5.65;;;9.50;99.90;;;;;;5017104;28;20041;-60
2023/03/31 03:44:46;;;;;;;27.88;4.28;;;9.50;99.90;;;;;;5004753;28;20075;-58
2023/03/31 03:47:12;;;;;;;22.15;4.50;;;9.40;99.90;;;;;;5005058;28;20084;-59
2023/03/31 03:49:38;;;;;;;21.67;4.15;;;9.40;99.90;;;;;;5003784;28;20106;-59
2023/03/31 03:52:04;;;;;;;23.65;4.68;;;9.40;99.90;;;;;;5017028;28;20398;-60
2023/03/31 03:54:30;;;;;;;19.55;4.45;;;9.40;99.90;;;;;;5019603;28;20060;-60
2023/03/31 03:56:56;;;;;;;23.80;4.70;;;9.50;99.90;;;;;;5023216;28;20130;-60
2023/03/31 03:59:22;;;;;;;26.63;4.45;;;9.40;99.90;;;;;;5013225;28;20191;-60
2023/03/31 04:01:48;;;;;;;28.10;4.60;;;9.40;99.90;;;;;;5004549;28;20045;-60
2023/03/31 04:04:14;;;;;;;23.38;4.35;;;9.40;99.90;;;;;;4999844;28;20049;-60
2023/03/31 04:06:40;;;;;;;24.80;4.22;;;9.50;99.90;;;;;;5023611;28;20507;-60
2023/03/31 04:09:06;;;;;;;22.77;4.22;;;9.40;99.90;;;;;;5002778;28;20085;-60
2023/03/31 04:11:32;;;;;;;19.35;4.20;;;9.40;99.90;;;;;;5020456;28;20049;-58
2023/03/31 04:13:58;;;;;;;19.33;4.28;;;9.50;99.90;;;;;;5010784;28;20076;-60
2023/03/31 04:16:24;;;;;;;20.75;4.50;;;9.50;99.90;;;;;;5024244;28;22594;-59
2023/03/31 04:18:55;;;;;;;18.20;4.47;;;9.50;99.90;;;;;;5005076;28;20038;-60
2023/03/31 04:21:22;;;;;;;20.90;4.10;;;9.50;99.90;;;;;;5024015;28;20106;-59
2023/03/31 04:24:03;;;;;;;19.10;5.03;;;9.50;99.90;;;;;;5003913;28;20068;-59
2023/03/31 04:26:41;;;;;;;20.70;4.80;;;9.50;99.90;;;;;;5007864;28;20049;-60
2023/03/31 04:29:09;;;;;;;23.65;4.65;;;9.50;99.90;;;;;;5027710;28;20064;-60
2023/03/31 04:31:37;;;;;;;15.63;4.30;;;9.50;99.90;;;;;;5025766;28;20514;-60
2023/03/31 04:34:05;;;;;;;14.82;4.78;;;9.50;99.90;;;;;;5007113;28;20059;-60
2023/03/31 04:36:34;;;;;;;22.50;4.97;;;9.60;99.90;;;;;;5027082;28;20285;-60
2023/03/31 04:39:00;;;;;;;21.63;5.32;;;9.60;99.90;;;;;;5007285;28;20103;-60
2023/03/31 04:41:26;;;;;;;20.45;6.05;;;9.60;99.90;;;;;;5022015;28;20053;-61
2023/03/31 04:43:52;;;;;;;17.48;5.20;;;9.60;99.90;;;;;;5006988;28;20148;-60
2023/03/31 04:46:18;;;;;;;24.27;6.18;;;9.60;99.90;;;;;;5023730;28;20053;-60
2023/03/31 04:48:44;;;;;;;22.45;6.18;;;9.60;99.90;;;;;;5010181;28;20128;-60
2023/03/31 04:51:14;;;;;;;18.15;6.28;;;9.60;99.90;;;;;;5020567;28;20488;-60
2023/03/31 04:53:40;;;;;;;16.70;6.40;;;9.60;99.90;;;;;;5017719;28;20385;-60
2023/03/31 04:56:06;;;;;;;16.15;5.80;;;9.60;99.90;;;;;;4989383;28;20053;-60
2023/03/31 04:58:32;;;;;;;17.83;6.25;;;9.60;99.90;;;;;;4995700;28;20763;-60
2023/03/31 05:00:58;;;;;;;17.92;6.85;;;9.60;99.90;;;;;;5000627;28;20054;-60
2023/03/31 05:03:24;;;;;;;16.20;6.88;;;9.60;99.90;;;;;;5016407;28;20480;-60
2023/03/31 05:05:49;;;;;;;18.73;6.38;;;9.60;99.90;;;;;;5008377;28;20041;-60
2023/03/31 05:08:15;;;;;;;15.30;6.60;;;9.60;99.90;;;;;;5029608;28;20077;-61
2023/03/31 05:10:41;;;;;;;21.08;7.28;;;9.60;99.90;;;;;;5005330;28;20049;-60
2023/03/31 05:13:09;;;;;;;22.05;7.30;;;9.70;99.90;;;;;;5019523;28;20057;-60
2023/03/31 05:15:39;;;;;;;18.33;6.75;;;9.60;99.90;;;;;;5024703;28;20072;-60
2023/03/31 05:18:06;;;;;;;19.45;7.72;;;9.60;99.90;;;;;;4997417;28;20054;-61
2023/03/31 05:20:32;;;;;;;15.75;7.78;;;9.70;99.90;;;;;;5009484;28;20068;-60
2023/03/31 05:22:59;;;;;;;20.42;7.35;;;9.60;99.90;;;;;;4992045;28;20045;-60
2023/03/31 05:25:31;;;;;;;18.88;7.35;;;9.70;99.90;;;;;;4999326;28;20062;-60
2023/03/31 05:27:58;;;;;;;18.67;7.32;;;9.70;99.90;;;;;;5006268;28;20057;-61
2023/03/31 05:30:25;;;;;;;20.30;7.40;;;9.70;99.90;;;;;;5004382;28;20056;-60
2023/03/31 05:32:52;;;;;;;19.33;7.95;;;9.70;99.90;;;;;;5008249;28;20120;-60
2023/03/31 05:35:17;;;;;;;17.25;8.10;;;9.70;99.90;;;;;;5021245;28;20120;-60
2023/03/31 05:37:44;;;;;;;17.30;7.93;;;9.70;99.90;;;;;;5022451;28;20049;-61
2023/03/31 05:40:10;;;;;;;18.70;7.05;;;9.70;99.90;;;;;;5024862;28;20045;-61
2023/03/31 05:42:36;;;;;;;18.15;6.65;;;9.70;99.90;;;;;;5027052;28;20610;-61
2023/03/31 05:45:03;;;;;;;19.60;7.93;;;9.70;99.90;;;;;;5025365;28;20041;-59
2023/03/31 05:47:29;;;;;;;17.23;7.05;;;9.70;99.90;;;;;;5005655;28;20053;-61
2023/03/31 05:49:55;;;;;;;19.63;7.55;;;9.70;99.90;;;;;;5018433;28;20147;-60
2023/03/31 05:52:21;;;;;;;17.33;7.03;;;9.80;99.90;;;;;;5024501;28;20174;-61
2023/03/31 05:54:47;;;;;;;22.73;7.18;;;9.80;99.90;;;;;;5006425;28;20053;-61
2023/03/31 05:57:12;;;;;;;18.60;7.18;;;9.70;99.90;;;;;;5020364;28;20045;-61
2023/03/31 05:59:40;;;;;;;18.52;6.78;;;9.70;99.90;;;;;;5023586;28;20349;-61
2023/03/31 06:02:07;;;;;;;21.90;7.15;;;9.80;99.90;;;;;;5025517;28;20057;-60
2023/03/31 06:04:32;;;;;;;21.58;7.75;;;9.80;99.90;;;;;;5021015;28;20046;-61
2023/03/31 06:06:58;;;;;;;19.20;5.97;;;9.80;99.90;;;;;;5001847;28;20048;-60
2023/03/31 06:09:25;;;;;;;12.80;5.60;;;9.80;99.90;;;;;;5014874;28;20130;-61
2023/03/31 06:11:51;;;;;;;15.63;5.50;;;9.80;99.90;;;;;;5023655;28;20041;-60
2023/03/31 06:14:17;;;;;;;14.02;5.20;;;9.80;99.90;;;;;;4992036;28;20078;-59
2023/03/31 06:16:43;;;;;;;11.82;4.82;;;9.80;99.90;;;;;;5023467;28;20085;-58
2023/03/31 06:19:09;;;;;;;16.15;4.95;;;9.90;99.90;;;;;;5026733;28;20623;-58
2023/03/31 06:21:34;;;;;;;14.02;5.28;;;9.90;99.90;;;;;;5031443;28;20040;-57
2023/03/31 06:24:00;;;;;;;10.63;4.50;;;9.90;99.90;;;;;;5016626;28;20610;-58
2023/03/31 06:26:26;;;;;;;15.38;4.88;;;9.90;99.90;;;;;;5032535;28;20037;-58
2023/03/31 06:28:53;;;;;;;13.20;4.78;;;9.90;99.90;;;;;;5036052;28;20053;-54
2023/03/31 06:31:21;;;;;;;14.05;4.70;;;9.90;99.90;;;;;;5026212;28;20049;-58
2023/03/31 06:33:48;;;;;;;13.95;5.10;;;9.90;99.90;;;;;;5009017;28;20123;-59
2023/03/31 06:36:16;;;;;;;12.82;4.75;;;9.90;99.90;;;;;;4997649;28;20218;-59
2023/03/31 06:38:42;;;;;;;13.35;4.57;;;9.90;99.90;;;;;;5023189;28;20116;-58
2023/03/31 06:41:10;;;;;;;16.10;4.85;;;9.90;99.90;;;;;;5024132;28;20545;-56
2023/03/31 06:43:36;;;;;;;10.52;4.60;;;9.90;99.90;;;;;;5024332;28;20133;-58
2023/03/31 06:46:02;;;;;;;12.48;5.07;;;9.90;99.90;;;;;;5025162;28;20583;-58
2023/03/31 06:48:28;;;;;;;14.57;4.97;;;9.90;99.90;;;;;;5027649;28;20049;-58
2023/03/31 06:50:55;;;;;;;13.50;5.20;;;9.90;99.90;;;;;;5008414;28;20526;-57
2023/03/31 06:53:21;;;;;;;13.10;5.55;;;9.90;99.90;;;;;;5025171;28;20068;-58
2023/03/31 06:55:47;;;;;;;17.60;5.03;;;9.90;99.90;;;;;;5009397;28;20049;-58
2023/03/31 06:58:13;;;;;;;13.70;4.60;;;10.00;99.90;;;;;;5008624;28;20060;-56
2023/03/31 07:00:39;;;;;;;10.95;4.63;;;10.00;99.90;;;;;;5002480;28;20042;-58
2023/03/31 07:03:07;;;;;;;10.43;4.88;;;10.00;99.90;;;;;;5003175;28;20041;-59
2023/03/31 07:05:33;;;;;;;13.45;4.55;;;10.00;99.90;;;;;;5023825;28;20054;-58
2023/03/31 07:08:01;;;;;;;7.88;4.05;;;10.00;99.90;;;;;;5002873;28;20045;-58
2023/03/31 07:10:29;;;;;;;14.95;4.60;;;10.00;99.90;;;;;;5019604;28;20080;-58
2023/03/31 07:12:55;;;;;;;10.30;4.25;;;10.00;99.90;;;;;;5030521;28;20041;-57
2023/03/31 07:15:21;;;;;;;10.27;4.40;;;10.00;99.90;;;;;;4999503;28;20050;-58
2023/03/31 07:17:49;;;;;;;10.43;4.38;;;10.00;99.90;;;;;;5017239;28;20064;-56
2023/03/31 07:20:17;;;;;;;12.63;4.47;;;10.00;99.90;;;;;;5018045;28;20052;-58
2023/03/31 07:22:48;;;;;;;10.05;4.13;;;10.00;99.90;;;;;;5029136;28;20079;-58
2023/03/31 07:25:16;;;;;;;11.88;4.10;;;10.00;99.90;;;;;;4999420;28;20069;-56
2023/03/31 07:27:43;;;;;;;9.43;4.45;;;10.00;99.90;;;;;;5003270;28;20607;-58
2023/03/31 07:30:17;;;;;;;12.23;4.30;;;10.00;99.90;;;;;;5000951;28;25661;-58
2023/03/31 07:32:46;;;;;;;10.75;4.35;;;10.00;99.90;;;;;;5011422;28;20050;-57
2023/03/31 07:35:12;;;;;;;11.02;4.70;;;10.00;99.90;;;;;;5004516;28;20073;-58
2023/03/31 07:37:40;;;;;;;9.65;4.20;;;10.00;99.90;;;;;;5003674;28;20479;-59
2023/03/31 07:40:07;;;;;;;10.93;4.90;;;10.00;99.90;;;;;;5004902;28;20396;-58
2023/03/31 07:42:33;;;;;;;9.90;4.72;;;10.00;99.90;;;;;;5003389;28;20044;-58
2023/03/31 07:44:59;;;;;;;7.03;3.92;;;10.10;99.90;;;;;;5017157;28;20062;-59
2023/03/31 07:47:26;;;;;;;7.72;3.60;;;10.10;99.90;;;;;;4999010;28;20264;-58
2023/03/31 07:49:52;;;;;;;9.07;3.78;;;10.10;99.90;;;;;;5005823;28;20523;-58
2023/03/31 07:52:18;;;;;;;8.40;3.67;;;10.10;99.90;;;;;;5008368;28;20048;-58
2023/03/31 07:54:47;;;;;;;7.68;3.60;;;10.10;99.90;;;;;;5001087;28;20117;-56
2023/03/31 07:57:15;;;;;;;8.40;4.10;;;10.10;99.90;;;;;;5004604;28;20888;-58
2023/03/31 07:59:41;;;;;;;8.40;4.13;;;10.10;99.90;;;;;;4997022;28;21017;-58
2023/03/31 08:02:08;;;;;;;9.98;4.10;;;10.10;99.90;;;;;;5006121;28;20108;-57
2023/03/31 08:04:34;;;;;;;9.50;3.92;;;10.10;99.90;;;;;;4996336;28;20054;-58
2023/03/31 08:07:00;;;;;;;11.35;4.32;;;10.10;99.90;;;;;;4998504;28;20065;-57
2023/03/31 08:09:26;;;;;;;8.35;3.50;;;10.20;99.90;;;;;;5013479;28;20776;-57
2023/03/31 08:11:52;;;;;;;7.22;3.72;;;10.20;99.90;;;;;;5009289;28;20732;-58
2023/03/31 08:14:17;;;;;;;10.15;4.30;;;10.20;99.90;;;;;;5004989;28;20042;-59
2023/03/31 08:16:43;;;;;;;6.85;3.85;;;10.20;99.90;;;;;;5008240;28;20050;-58
2023/03/31 08:19:09;;;;;;;9.68;3.45;;;10.20;99.90;;;;;;5004957;28;20512;-59
2023/03/31 08:21:35;;;;;;;7.63;3.25;;;10.20;99.90;;;;;;4999556;28;20073;-58
2023/03/31 08:24:00;;;;;;;7.38;3.45;;;10.20;99.90;;;;;;5006023;28;20049;-58
2023/03/31 08:26:26;;;;;;;6.07;3.17;;;10.20;99.90;;;;;;5009406;28;20527;-57
2023/03/31 08:28:52;;;;;;;6.00;2.58;;;10.20;99.90;;;;;;5035511;28;20049;-59
2023/03/31 08:31:20;;;;;;;6.88;3.38;;;10.20;99.90;;;;;;5025815;28;20488;-58
2023/03/31 08:33:46;;;;;;;6.85;3.17;;;10.20;99.90;;;;;;5029716;28;20037;-59
2023/03/31 08:36:12;;;;;;;7.10;2.80;;;10.20;99.90;;;;;;5031133;28;20128;-57
2023/03/31 08:38:46;;;;;;;5.70;2.95;;;10.20;99.90;;;;;;5039294;28;20461;-58
2023/03/31 08:41:44;;;;;;;7.95;3.15;;;10.20;99.90;;;;;;5029424;28;20128;-59
2023/03/31 08:44:22;;;;;;;7.40;2.80;;;10.20;99.90;;;;;;5031404;28;20041;-59
2023/03/31 08:46:51;;;;;;;8.55;3.08;;;10.20;99.90;;;;;;5021009;28;20077;-58
2023/03/31 08:49:19;;;;;;;9.52;2.95;;;10.20;99.90;;;;;;5019550;28;20068;-57
2023/03/31 08:51:51;;;;;;;8.77;3.25;;;10.20;99.90;;;;;;5019221;28;20080;-58
2023/03/31 08:54:57;;;;;;;7.72;3.28;;;10.20;99.90;;;;;;5018470;28;20068;-58
2023/03/31 08:58:04;;;;;;;7.40;2.75;;;10.20;99.90;;;;;;5017361;28;20238;-58
2023/03/31 09:00:50;;;;;;;8.23;3.20;;;10.20;99.90;;;;;;5000748;28;20107;-59
2023/03/31 09:03:25;;;;;;;8.90;3.38;;;10.30;99.90;;;;;;5026120;28;20148;-59
2023/03/31 09:06:15;;;;;;;9.85;3.80;;;10.30;99.90;;;;;;5025697;28;20053;-59
2023/03/31 09:08:41;;;;;;;8.95;3.45;;;10.30;99.90;;;;;;5024361;28;20368;-59
2023/03/31 09:11:26;;;;;;;8.45;3.95;;;10.30;99.90;;;;;;4976145;28;20060;-59
2023/03/31 09:14:25;;;;;;;9.43;3.70;;;10.30;99.90;;;;;;5011589;28;20092;-59
2023/03/31 09:16:59;;;;;;;8.93;3.75;;;10.30;99.90;;;;;;5018673;28;20096;-57
2023/03/31 09:19:40;;;;;;;10.23;3.60;;;10.30;99.90;;;;;;5011850;28;20049;-58
2023/03/31 09:22:14;;;;;;;12.02;3.95;;;10.40;99.90;;;;;;5026744;28;20214;-58
2023/03/31 09:24:49;;;;;;;12.05;3.67;;;10.40;99.90;;;;;;5022258;28;20073;-58
2023/03/31 09:27:15;;;;;;;11.90;4.05;;;10.40;99.90;;;;;;5025139;28;20083;-58
2023/03/31 09:29:52;;;;;;;12.27;4.20;;;10.40;99.90;;;;;;5022543;28;20053;-58
2023/03/31 09:32:23;;;;;;;11.40;3.72;;;10.50;99.90;;;;;;4999419;28;20191;-57
2023/03/31 09:34:52;;;;;;;9.50;3.95;;;10.50;99.90;;;;;;5024514;28;20127;-56
2023/03/31 09:37:18;;;;;;;10.57;3.72;;;10.50;99.90;;;;;;5024734;28;20049;-59
2023/03/31 09:39:44;;;;;;;9.23;3.65;;;10.60;99.90;;;;;;5021945;28;20040;-59
2023/03/31 09:42:13;;;;;;;9.93;4.15;;;10.60;99.90;;;;;;5019875;28;20120;-59
2023/03/31 09:44:42;;;;;;;13.30;4.30;;;10.60;99.90;;;;;;5003861;28;22291;-59
2023/03/31 09:47:50;;;;;;;12.82;4.22;;;10.60;99.90;;;;;;5004785;28;20068;-57
2023/03/31 09:50:16;;;;;;;8.65;3.67;;;10.70;99.90;;;;;;4929564;29;20067;-56
2023/03/31 09:52:49;;;;;;;11.68;4.38;;;10.70;99.90;;;;;;4920539;29;20070;-57
2023/03/31 09:55:20;;;;;;;9.45;3.75;;;10.70;99.90;;;;;;4970686;28;20172;-58
2023/03/31 09:57:45;;;;;;;9.30;3.78;;;10.80;99.90;;;;;;5005374;28;20053;-59
2023/03/31 10:00:15;;;;;;;9.85;3.75;;;10.90;99.90;;;;;;4999728;28;20861;-59
2023/03/31 10:02:54;;;;;;;8.00;4.00;;;10.90;99.90;;;;;;5023813;28;20069;-59
2023/03/31 10:05:31;;;;;;;7.50;3.63;;;11.00;99.90;;;;;;5021560;28;20053;-58
2023/03/31 10:08:24;;;;;;;10.38;4.00;;;11.10;99.90;;;;;;5022755;28;20255;-59
2023/03/31 10:10:54;;;;;;;8.82;3.95;;;11.20;99.90;;;;;;4998836;28;20060;-56
2023/03/31 10:13:24;;;;;;;9.63;3.92;;;11.30;99.90;;;;;;5024208;28;20076;-58
2023/03/31 10:16:00;;;;;;;12.30;4.07;;;11.40;99.90;;;;;;5006611;28;20048;-58
2023/03/31 10:18:36;;;;;;;8.95;3.30;;;11.40;99.90;;;;;;5025953;28;20076;-59
2023/03/31 10:21:05;;;;;;;9.80;3.50;;;11.50;99.90;;;;;;5024549;28;20701;-58
2023/03/31 10:23:33;;;;;;;10.48;3.80;;;11.50;99.90;;;;;;5021607;28;20053;-59
2023/03/31 10:26:00;;;;;;;7.72;3.47;;;11.60;99.90;;;;;;5022553;28;20432;-59
2023/03/31 10:28:30;;;;;;;6.35;2.95;;;11.60;99.90;;;;;;5023781;28;20049;-59
2023/03/31 10:31:01;;;;;;;5.95;2.90;;;11.70;99.90;;;;;;5027376;28;20159;-59
2023/03/31 10:33:33;;;;;;;10.52;2.88;;;11.70;99.90;;;;;;5026676;28;20037;-59
2023/03/31 10:36:20;;;;;;;4.03;2.03;;;11.70;99.90;;;;;;5014816;28;20049;-59
2023/03/31 10:38:48;;;;;;;4.93;2.30;;;11.70;99.90;;;;;;5018162;28;20713;-59
2023/03/31 10:41:24;;;;;;;5.80;2.53;;;11.60;99.90;;;;;;5019422;28;20202;-58
2023/03/31 10:43:55;;;;;;;6.28;2.28;;;11.60;99.90;;;;;;5023588;28;20543;-59
2023/03/31 10:46:49;;;;;;;5.43;2.67;;;11.50;99.90;;;;;;5019315;28;20102;-59
2023/03/31 10:49:20;;;;;;;9.23;2.85;;;11.50;99.90;;;;;;5022459;28;20135;-58
2023/03/31 10:51:56;;;;;;;6.63;3.30;;;11.50;99.90;;;;;;5020881;28;20462;-56
2023/03/31 10:54:22;;;;;;;8.73;3.10;;;11.50;99.90;;;;;;5019289;28;20136;-59
2023/03/31 10:56:52;;;;;;;8.30;2.83;;;11.50;99.90;;;;;;4996426;28;20057;-59
2023/03/31 10:59:42;;;;;;;7.32;3.20;;;11.50;99.90;;;;;;5016940;28;20068;-59
2023/03/31 11:02:37;;;;;;;8.73;3.10;;;11.60;99.90;;;;;;5020826;28;20045;-59
2023/03/31 11:05:12;;;;;;;6.85;2.90;;;11.60;99.90;;;;;;5015258;28;20139;-59
2023/03/31 11:07:40;;;;;;;5.82;3.10;;;11.70;99.90;;;;;;5015845;28;20041;-58
2023/03/31 11:10:32;;;;;;;6.20;2.95;;;11.70;99.90;;;;;;4997887;28;20552;-58
2023/03/31 11:13:03;;;;;;;5.63;2.95;;;11.70;99.90;;;;;;5001948;28;20053;-57
2023/03/31 11:15:34;;;;;;;9.95;3.50;;;11.80;99.90;;;;;;5018661;28;20084;-59
2023/03/31 11:18:33;;;;;;;9.07;3.17;;;11.80;99.90;;;;;;5021211;28;20045;-58
2023/03/31 11:21:20;;;;;;;11.07;3.53;;;11.90;99.90;;;;;;5018152;28;20065;-59
2023/03/31 11:23:55;;;;;;;8.80;3.65;;;12.00;99.90;;;;;;5023067;28;20272;-59
2023/03/31 11:26:30;;;;;;;9.35;3.72;;;12.20;99.90;;;;;;5023382;28;20053;-59
2023/03/31 11:29:33;;;;;;;10.57;3.83;;;12.40;99.90;;;;;;5005841;28;20046;-57
2023/03/31 11:32:51;;;;;;;11.05;3.50;;;12.50;99.90;;;;;;5021572;28;20049;-58
2023/03/31 11:35:42;;;;;;;8.35;2.85;;;12.70;99.90;;;;;;4979617;28;20060;-59
2023/03/31 11:38:38;;;;;;;9.45;3.20;;;12.80;99.90;;;;;;5005629;28;20119;-59
2023/03/31 11:41:33;;;;;;;10.57;3.33;;;12.80;99.90;;;;;;5016055;28;20126;-59
2023/03/31 11:44:03;;;;;;;8.55;3.10;;;13.00;99.90;;;;;;5008169;28;20037;-59
2023/03/31 11:46:32;;;;;;;8.45;3.22;;;13.10;99.90;;;;;;5021421;28;20131;-59
2023/03/31 11:49:02;;;;;;;7.00;2.90;;;13.20;99.90;;;;;;5021268;28;20152;-60
2023/03/31 11:51:43;;;;;;;4.93;2.60;;;13.30;99.90;;;;;;5021759;28;20052;-58
2023/03/31 11:54:22;;;;;;;10.32;3.25;;;13.30;99.90;;;;;;5012122;28;20106;-59
2023/03/31 11:56:48;;;;;;;10.40;3.55;;;13.30;99.90;;;;;;5022386;28;20041;-59
2023/03/31 11:59:16;;;;;;;9.52;3.10;;;13.40;99.90;;;;;;5008003;28;20111;-60
2023/03/31 12:01:56;;;;;;;9.27;2.90;;;13.40;99.90;;;;;;5023039;28;20096;-60
2023/03/31 12:04:43;;;;;;;12.15;3.50;;;13.50;99.90;;;;;;5021777;28;20033;-59
2023/03/31 12:07:46;;;;;;;7.63;2.90;;;13.50;99.90;;;;;;5027705;28;20045;-58
2023/03/31 12:10:30;;;;;;;8.23;2.83;;;13.40;99.90;;;;;;4969806;28;20083;-58
2023/03/31 12:13:13;;;;;;;7.13;2.70;;;13.30;99.90;;;;;;5025867;28;20120;-59
2023/03/31 12:15:43;;;;;;;8.60;2.72;;;13.20;99.90;;;;;;5022496;28;20052;-58
2023/03/31 12:18:14;;;;;;;10.52;2.80;;;13.10;99.90;;;;;;5023240;28;20107;-56
2023/03/31 12:20:46;;;;;;;7.97;2.30;;;13.00;99.90;;;;;;5009993;28;20037;-59
2023/03/31 12:23:20;;;;;;;8.07;2.80;;;12.80;99.90;;;;;;4983794;28;20036;-59
2023/03/31 12:26:02;;;;;;;9.95;2.90;;;12.70;99.90;;;;;;5025938;28;20045;-59
2023/03/31 12:28:31;;;;;;;11.23;3.10;;;12.70;99.90;;;;;;5020450;28;20046;-60
2023/03/31 12:31:01;;;;;;;8.75;3.08;;;12.60;99.90;;;;;;4987351;28;20403;-60
2023/03/31 12:33:42;;;;;;;12.55;3.17;;;12.60;99.90;;;;;;5007859;28;20462;-59
2023/03/31 12:36:17;;;;;;;7.03;3.05;;;12.50;99.90;;;;;;5021705;28;20491;-59
2023/03/31 12:39:11;;;;;;;9.70;2.95;;;12.50;99.90;;;;;;5028055;28;20045;-60
2023/03/31 12:41:40;;;;;;;9.65;3.40;;;12.40;99.90;;;;;;5006827;28;20457;-59
2023/03/31 12:44:20;;;;;;;11.18;3.10;;;12.40;99.90;;;;;;5019519;28;20046;-60
2023/03/31 12:46:49;;;;;;;11.48;3.28;;;12.40;99.90;;;;;;5005697;28;20106;-59
2023/03/31 12:49:31;;;;;;;8.07;3.45;;;12.30;99.90;;;;;;5022386;28;20045;-60
2023/03/31 12:52:11;;;;;;;11.52;4.07;;;12.40;99.90;;;;;;5024688;28;20049;-59
2023/03/31 12:55:01;;;;;;;11.68;3.22;;;12.40;99.90;;;;;;5023845;28;20855;-58
2023/03/31 12:57:27;;;;;;;9.38;2.97;;;12.60;99.90;;;;;;5017937;28;20131;-60
2023/03/31 13:00:10;;;;;;;8.77;3.00;;;12.70;99.90;;;;;;5013764;28;20443;-60
2023/03/31 13:02:36;;;;;;;10.43;2.78;;;12.80;99.90;;;;;;5002182;28;20083;-60
2023/03/31 13:05:39;;;;;;;9.52;3.17;;;12.90;99.90;;;;;;5022360;28;20041;-58
2023/03/31 13:08:09;;;;;;;10.75;3.42;;;13.00;99.90;;;;;;5026947;28;20408;-60
2023/03/31 13:10:57;;;;;;;8.88;2.72;;;13.10;99.90;;;;;;5023045;28;20699;-59
2023/03/31 13:13:25;;;;;;;9.98;3.28;;;13.10;99.90;;;;;;5023922;28;20546;-60
2023/03/31 13:15:56;;;;;;;9.23;2.75;;;13.10;99.90;;;;;;5025075;28;20455;-59